createdAt,value
2023-02-01T00:00:31.828Z,6.87
2023-02-01T00:03:01.855Z,6.86
2023-02-01T00:05:34.446Z,6.84
2023-02-01T00:08:04.516Z,6.81
2023-02-01T00:10:34.558Z,6.84
2023-02-01T00:13:04.473Z,6.84
2023-02-01T00:15:34.936Z,6.80
2023-02-01T00:18:04.827Z,6.72
2023-02-01T00:20:37.411Z,6.66
2023-02-01T00:23:08.845Z,6.69
2023-02-01T00:25:38.838Z,6.67
2023-02-01T00:28:09.087Z,6.61
2023-02-01T00:30:39.103Z,6.64
2023-02-01T00:33:09.050Z,6.65
2023-02-01T00:35:41.531Z,6.62
2023-02-01T00:38:11.552Z,6.63
2023-02-01T00:40:41.517Z,6.68
2023-02-01T00:43:11.785Z,6.64
2023-02-01T00:45:41.718Z,6.62
2023-02-01T00:48:11.755Z,6.67
2023-02-01T00:50:47.658Z,6.63
2023-02-01T00:53:17.621Z,6.65
2023-02-01T00:55:48.967Z,6.64
2023-02-01T00:58:19.709Z,6.68
2023-02-01T01:00:51.116Z,6.73
2023-02-01T01:03:23.977Z,6.80
2023-02-01T01:06:01.285Z,6.87
2023-02-01T01:08:31.486Z,6.98
2023-02-01T01:11:01.533Z,6.98
2023-02-01T01:13:31.423Z,6.94
2023-02-01T01:16:04.674Z,6.91
2023-02-01T01:18:36.001Z,6.90
2023-02-01T01:21:10.202Z,6.84
2023-02-01T01:23:40.712Z,6.80
2023-02-01T01:26:11.541Z,6.80
2023-02-01T01:28:41.612Z,6.78
2023-02-01T01:31:13.368Z,6.77
2023-02-01T01:33:44.979Z,6.72
2023-02-01T01:36:17.614Z,6.76
2023-02-01T01:38:47.918Z,6.71
2023-02-01T01:41:20.702Z,6.75
2023-02-01T01:44:00.014Z,6.79
2023-02-01T01:46:33.563Z,6.77
2023-02-01T01:49:09.745Z,6.72
2023-02-01T01:51:46.900Z,6.72
2023-02-01T01:54:21.214Z,6.71
2023-02-01T01:56:55.122Z,6.68
2023-02-01T01:59:26.974Z,6.66
2023-02-01T02:01:58.523Z,6.70
2023-02-01T02:04:29.375Z,6.68
2023-02-01T02:07:06.747Z,6.70
2023-02-01T02:09:36.801Z,6.71
2023-02-01T02:12:07.468Z,6.77
2023-02-01T02:14:38.252Z,6.82
2023-02-01T02:17:28.053Z,6.89
2023-02-01T02:20:32.537Z,6.92
2023-02-01T02:23:55.752Z,6.87
2023-02-01T02:26:39.083Z,6.89
2023-02-01T02:29:41.685Z,6.86
2023-02-01T02:32:45.993Z,6.88
2023-02-01T02:35:27.473Z,6.89
2023-02-01T02:38:05.255Z,6.87
2023-02-01T02:40:40.734Z,6.84
2023-02-01T02:43:33.711Z,6.80
2023-02-01T02:46:31.865Z,6.79
2023-02-01T02:49:08.851Z,6.82
2023-02-01T02:52:01.761Z,6.80
2023-02-01T02:54:52.832Z,6.79
2023-02-01T02:57:41.944Z,6.84
2023-02-01T03:00:27.513Z,6.82
2023-02-01T03:03:10.392Z,6.80
2023-02-01T03:05:44.519Z,6.79
2023-02-01T03:08:20.737Z,6.80
2023-02-01T03:11:01.388Z,6.84
2023-02-01T03:13:52.331Z,6.85
2023-02-01T03:16:27.505Z,6.84
2023-02-01T03:19:01.724Z,6.81
2023-02-01T03:21:37.761Z,6.82
2023-02-01T03:24:16.030Z,6.85
2023-02-01T03:26:52.565Z,6.82
2023-02-01T03:29:29.343Z,6.83
2023-02-01T03:31:59.580Z,6.82
2023-02-01T03:34:29.876Z,6.80
2023-02-01T03:37:06.369Z,6.81
2023-02-01T03:39:44.303Z,6.86
2023-02-01T03:42:21.579Z,6.82
2023-02-01T03:44:57.212Z,6.79
2023-02-01T03:47:29.791Z,6.80
2023-02-01T03:50:05.366Z,6.81
2023-02-01T03:52:41.641Z,6.86
2023-02-01T03:55:17.446Z,6.81
2023-02-01T03:57:55.448Z,6.85
2023-02-01T04:00:27.862Z,6.88
2023-02-01T04:03:00.040Z,6.85
2023-02-01T04:05:31.316Z,6.84
2023-02-01T04:08:06.633Z,6.87
2023-02-01T04:10:39.243Z,6.89
2023-02-01T04:13:09.256Z,6.87
2023-02-01T04:15:39.384Z,6.92
2023-02-01T04:18:09.528Z,7.04
2023-02-01T04:20:39.444Z,7.02
2023-02-01T04:23:09.383Z,7.11
2023-02-01T04:25:42.260Z,7.15
2023-02-01T04:28:12.232Z,7.12
2023-02-01T04:30:42.164Z,7.13
2023-02-01T04:33:15.036Z,7.16
2023-02-01T04:35:45.078Z,7.20
2023-02-01T04:38:15.118Z,7.21
2023-02-01T04:40:50.272Z,7.22
2023-02-01T04:43:21.150Z,7.22
2023-02-01T04:45:52.216Z,7.24
2023-02-01T04:48:25.054Z,7.26
2023-02-01T04:50:55.036Z,7.25
2023-02-01T04:53:25.007Z,7.28
2023-02-01T04:55:57.565Z,7.25
2023-02-01T04:58:27.494Z,7.25
2023-02-01T05:00:57.640Z,7.34
2023-02-01T05:03:27.719Z,7.36
2023-02-01T05:05:57.601Z,7.34
2023-02-01T05:08:28.051Z,7.39
2023-02-01T05:11:03.419Z,7.43
2023-02-01T05:13:46.135Z,7.40
2023-02-01T05:16:16.100Z,7.45
2023-02-01T05:18:46.008Z,7.44
2023-02-01T05:21:16.690Z,7.46
2023-02-01T05:24:04.840Z,7.50
2023-02-01T05:26:37.614Z,7.55
2023-02-01T05:29:08.404Z,7.59
2023-02-01T05:31:38.761Z,7.54
2023-02-01T05:34:09.699Z,7.54
2023-02-01T05:36:39.629Z,7.63
2023-02-01T05:39:09.723Z,7.63
2023-02-01T05:41:42.248Z,7.63
2023-02-01T05:44:12.143Z,7.63
2023-02-01T05:46:42.149Z,7.60
2023-02-01T05:49:12.357Z,7.63
2023-02-01T05:51:42.311Z,7.60
2023-02-01T05:54:13.472Z,7.63
2023-02-01T05:56:46.076Z,7.68
2023-02-01T05:59:16.137Z,7.74
2023-02-01T06:01:46.197Z,7.75
2023-02-01T06:04:16.166Z,7.78
2023-02-01T06:06:46.244Z,7.77
2023-02-01T06:09:16.120Z,7.82
2023-02-01T06:11:48.621Z,7.84
2023-02-01T06:14:18.718Z,7.86
2023-02-01T06:16:49.377Z,7.83
2023-02-01T06:19:19.451Z,7.78
2023-02-01T06:21:49.549Z,7.76
2023-02-01T06:24:19.665Z,7.80
2023-02-01T06:26:52.198Z,7.78
2023-02-01T06:29:22.265Z,7.75
2023-02-01T06:31:52.301Z,7.74
2023-02-01T06:34:23.368Z,7.65
2023-02-01T06:36:53.416Z,7.62
2023-02-01T06:39:23.550Z,7.62
2023-02-01T06:41:56.061Z,7.51
2023-02-01T06:44:25.965Z,7.48
2023-02-01T06:46:56.011Z,7.49
2023-02-01T06:49:25.935Z,7.46
2023-02-01T06:51:55.877Z,7.44
2023-02-01T06:54:25.926Z,7.43
2023-02-01T06:56:58.578Z,7.48
2023-02-01T06:59:28.445Z,7.40
2023-02-01T07:01:58.521Z,7.40
2023-02-01T07:04:28.611Z,7.46
2023-02-01T07:06:58.512Z,7.46
2023-02-01T07:09:28.419Z,7.41
2023-02-01T07:12:00.946Z,7.47
2023-02-01T07:14:30.859Z,7.40
2023-02-01T07:17:00.817Z,7.34
2023-02-01T07:19:30.717Z,7.39
2023-02-01T07:22:00.684Z,7.36
2023-02-01T07:24:31.671Z,7.35
2023-02-01T07:27:04.246Z,7.36
2023-02-01T07:29:34.166Z,7.40
2023-02-01T07:32:04.120Z,7.49
2023-02-01T07:34:34.990Z,7.49
2023-02-01T07:37:04.949Z,7.50
2023-02-01T07:42:15.820Z,7.67
2023-02-01T07:44:45.748Z,7.73
2023-02-01T07:47:15.864Z,7.74
2023-02-01T07:49:45.805Z,7.74
2023-02-01T07:52:15.728Z,7.72
2023-02-01T07:54:45.662Z,7.74
2023-02-01T07:57:18.200Z,7.75
2023-02-01T08:00:00.292Z,7.74
2023-02-01T08:02:30.283Z,7.67
2023-02-01T08:05:02.548Z,7.67
2023-02-01T08:07:32.683Z,7.56
2023-02-01T08:10:03.222Z,7.41
2023-02-01T08:12:36.011Z,7.41
2023-02-01T08:15:06.557Z,7.31
2023-02-01T08:17:36.489Z,7.27
2023-02-01T08:20:06.838Z,7.31
2023-02-01T08:22:36.784Z,7.23
2023-02-01T08:25:07.597Z,7.16
2023-02-01T08:27:40.685Z,7.14
2023-02-01T08:30:12.233Z,7.12
2023-02-01T08:32:42.253Z,7.05
2023-02-01T08:35:15.655Z,7.03
2023-02-01T08:37:45.689Z,7.05
2023-02-01T08:40:16.539Z,7.13
2023-02-01T08:42:55.072Z,7.18
2023-02-01T08:45:27.603Z,7.12
2023-02-01T08:47:57.753Z,7.04
2023-02-01T08:50:28.567Z,7.06
2023-02-01T08:52:59.463Z,7.08
2023-02-01T08:55:29.517Z,7.17
2023-02-01T08:58:02.429Z,7.13
2023-02-01T09:00:32.416Z,7.06
2023-02-01T09:03:02.457Z,6.98
2023-02-01T09:05:47.541Z,6.95
2023-02-01T09:08:21.019Z,6.97
2023-02-01T09:10:51.113Z,7.01
2023-02-01T09:13:23.827Z,7.00
2023-02-01T09:15:54.869Z,7.08
2023-02-01T09:18:24.928Z,7.10
2023-02-01T09:20:54.882Z,7.15
2023-02-01T09:23:24.875Z,7.17
2023-02-01T09:25:55.121Z,7.26
2023-02-01T09:28:27.906Z,7.31
2023-02-01T09:31:00.556Z,7.38
2023-02-01T09:33:32.435Z,7.59
2023-02-01T09:36:04.599Z,7.80
2023-02-01T09:38:38.853Z,7.82
2023-02-01T09:41:27.801Z,7.80
2023-02-01T09:44:08.707Z,7.68
2023-02-01T09:46:38.763Z,7.55
2023-02-01T09:49:15.555Z,7.49
2023-02-01T09:51:49.238Z,7.45
2023-02-01T09:54:22.568Z,7.48
2023-02-01T09:56:57.654Z,7.55
2023-02-01T09:59:42.125Z,7.64
2023-02-01T10:02:18.833Z,7.68
2023-02-01T10:04:50.009Z,7.70
2023-02-01T10:07:31.856Z,7.73
2023-02-01T10:10:10.217Z,7.79
2023-02-01T10:13:03.612Z,7.90
2023-02-01T10:15:54.171Z,7.92
2023-02-01T10:18:48.155Z,8.01
2023-02-01T10:21:29.311Z,7.95
2023-02-01T10:24:17.695Z,7.77
2023-02-01T10:26:52.887Z,7.69
2023-02-01T10:29:26.676Z,7.69
2023-02-01T10:31:59.622Z,7.65
2023-02-01T10:34:33.849Z,7.63
2023-02-01T10:37:12.252Z,7.56
2023-02-01T10:39:42.197Z,7.53
2023-02-01T10:42:12.593Z,7.60
2023-02-01T10:44:49.062Z,7.80
2023-02-01T10:47:21.951Z,8.03
2023-02-01T10:49:59.717Z,9.35
2023-02-01T10:52:42.486Z,9.81
2023-02-01T10:55:40.779Z,9.78
2023-02-01T10:58:19.840Z,9.56
2023-02-01T11:00:52.836Z,9.27
2023-02-01T11:03:55.643Z,8.84
2023-02-01T11:06:33.961Z,8.41
2023-02-01T11:09:13.975Z,8.23
2023-02-01T11:11:58.063Z,8.19
2023-02-01T11:14:37.671Z,8.45
2023-02-01T11:17:25.211Z,10.38
2023-02-01T11:20:08.511Z,12.55
2023-02-01T11:22:38.472Z,13.11
2023-02-01T11:25:14.282Z,12.82
2023-02-01T11:27:54.458Z,12.04
2023-02-01T11:30:34.195Z,11.07
2023-02-01T11:33:06.817Z,10.57
2023-02-01T11:35:42.205Z,10.87
2023-02-01T11:38:23.301Z,12.32
2023-02-01T11:40:53.600Z,12.95
2023-02-01T11:43:28.903Z,13.39
2023-02-01T11:46:01.201Z,12.86
2023-02-01T11:48:33.508Z,12.06
2023-02-01T11:51:26.739Z,11.40
2023-02-01T11:54:08.471Z,10.96
2023-02-01T11:56:41.577Z,10.59
2023-02-01T11:59:25.786Z,10.70
2023-02-01T12:02:12.424Z,10.72
2023-02-01T12:05:02.430Z,11.19
2023-02-01T12:07:48.807Z,11.03
2023-02-01T12:10:32.796Z,10.52
2023-02-01T12:13:13.239Z,10.16
2023-02-01T12:15:57.856Z,10.39
2023-02-01T12:18:50.828Z,11.62
2023-02-01T12:21:32.500Z,12.47
2023-02-01T12:24:28.518Z,12.02
2023-02-01T12:27:10.944Z,11.28
2023-02-01T12:29:56.746Z,10.47
2023-02-01T12:32:40.045Z,10.13
2023-02-01T12:35:39.727Z,10.01
2023-02-01T12:38:36.093Z,9.94
2023-02-01T12:41:22.277Z,9.68
2023-02-01T12:43:59.688Z,9.59
2023-02-01T12:46:35.205Z,9.44
2023-02-01T12:49:14.038Z,9.27
2023-02-01T12:51:47.905Z,9.15
2023-02-01T12:54:24.296Z,9.09
2023-02-01T12:57:02.763Z,8.93
2023-02-01T12:59:38.770Z,8.84
2023-02-01T13:02:18.372Z,8.81
2023-02-01T13:05:00.002Z,8.81
2023-02-01T13:07:35.090Z,8.92
2023-02-01T13:10:08.984Z,9.00
2023-02-01T13:12:48.934Z,9.03
2023-02-01T13:15:24.367Z,8.98
2023-02-01T13:17:56.582Z,8.73
2023-02-01T13:20:34.526Z,8.30
2023-02-01T13:23:07.968Z,7.91
2023-02-01T13:25:44.038Z,7.52
2023-02-01T13:28:24.024Z,7.33
2023-02-01T13:31:19.592Z,7.38
2023-02-01T13:34:22.516Z,7.58
2023-02-01T13:37:08.357Z,7.69
2023-02-01T13:39:52.856Z,7.72
2023-02-01T13:42:26.949Z,7.82
2023-02-01T13:45:02.673Z,7.87
2023-02-01T13:47:35.558Z,7.81
2023-02-01T13:50:13.945Z,7.95
2023-02-01T13:52:47.303Z,7.98
2023-02-01T13:55:34.338Z,7.96
2023-02-01T13:58:19.185Z,7.98
2023-02-01T14:00:53.720Z,8.03
2023-02-01T14:03:25.872Z,8.08
2023-02-01T14:06:36.394Z,8.16
2023-02-01T14:09:38.307Z,8.37
2023-02-01T14:12:47.396Z,8.42
2023-02-01T14:15:26.937Z,8.40
2023-02-01T14:17:59.735Z,8.46
2023-02-01T14:20:57.567Z,8.48
2023-02-01T14:23:34.690Z,8.46
2023-02-01T14:26:11.255Z,8.42
2023-02-01T14:28:47.053Z,8.39
2023-02-01T14:31:35.881Z,8.40
2023-02-01T14:34:20.063Z,8.50
2023-02-01T14:36:54.408Z,8.32
2023-02-01T14:39:38.529Z,8.27
2023-02-01T14:42:23.077Z,8.31
2023-02-01T14:44:58.993Z,8.36
2023-02-01T14:47:35.827Z,8.32
2023-02-01T14:50:23.520Z,8.37
2023-02-01T14:53:03.173Z,8.47
2023-02-01T14:55:40.419Z,8.39
2023-02-01T14:58:20.229Z,8.35
2023-02-01T15:00:54.026Z,8.32
2023-02-01T15:03:36.832Z,8.35
2023-02-01T15:06:24.768Z,8.43
2023-02-01T15:08:58.477Z,8.45
2023-02-01T15:11:28.557Z,8.48
2023-02-01T15:14:00.884Z,8.49
2023-02-01T15:16:31.287Z,8.40
2023-02-01T15:19:18.030Z,8.39
2023-02-01T15:21:56.742Z,8.36
2023-02-01T15:24:29.547Z,8.41
2023-02-01T15:27:10.897Z,8.37
2023-02-01T15:29:41.337Z,8.23
2023-02-01T15:32:32.549Z,7.98
2023-02-01T15:35:03.746Z,7.86
2023-02-01T15:37:36.391Z,7.77
2023-02-01T15:40:25.102Z,7.80
2023-02-01T15:42:57.936Z,7.66
2023-02-01T15:45:31.107Z,7.61
2023-02-01T15:48:03.028Z,7.58
2023-02-01T15:50:35.027Z,7.56
2023-02-01T15:53:08.759Z,7.42
2023-02-01T15:55:43.871Z,7.33
2023-02-01T15:58:22.208Z,7.38
2023-02-01T16:00:54.661Z,7.31
2023-02-01T16:03:32.273Z,7.13
2023-02-01T16:06:04.218Z,7.14
2023-02-01T16:08:38.171Z,6.98
2023-02-01T16:11:36.166Z,6.88
2023-02-01T16:14:06.149Z,6.83
2023-02-01T16:16:36.112Z,6.82
2023-02-01T16:19:06.198Z,6.63
2023-02-01T16:21:36.162Z,6.51
2023-02-01T16:24:12.013Z,6.38
2023-02-01T16:26:42.394Z,6.32
2023-02-01T16:29:12.454Z,6.17
2023-02-01T16:31:43.695Z,6.15
2023-02-01T16:34:18.420Z,6.19
2023-02-01T16:36:53.282Z,6.19
2023-02-01T16:39:26.309Z,6.13
2023-02-01T16:42:00.987Z,6.21
2023-02-01T16:44:31.379Z,6.21
2023-02-01T16:47:01.534Z,6.22
2023-02-01T16:49:31.587Z,6.27
2023-02-01T16:52:02.949Z,6.28
2023-02-01T16:54:35.870Z,6.33
2023-02-01T16:57:05.810Z,6.32
2023-02-01T16:59:38.088Z,6.31
2023-02-01T17:02:08.146Z,6.30
2023-02-01T17:04:38.457Z,6.30
2023-02-01T17:07:10.525Z,6.26
2023-02-01T17:09:43.726Z,6.31
2023-02-01T17:12:25.584Z,6.34
2023-02-01T17:14:56.058Z,6.29
2023-02-01T17:17:38.380Z,6.26
2023-02-01T17:20:13.172Z,6.32
2023-02-01T17:22:51.966Z,6.41
2023-02-01T17:25:29.949Z,6.46
2023-02-01T17:28:02.414Z,6.48
2023-02-01T17:30:33.969Z,6.54
2023-02-01T17:33:20.698Z,6.55
2023-02-01T17:36:01.344Z,6.48
2023-02-01T17:38:35.800Z,6.46
2023-02-01T17:41:08.560Z,6.45
2023-02-01T17:43:38.550Z,6.44
2023-02-01T17:46:13.675Z,6.42
2023-02-01T17:48:44.123Z,6.47
2023-02-01T17:51:19.434Z,6.53
2023-02-01T17:53:51.782Z,6.55
2023-02-01T17:56:28.377Z,6.52
2023-02-01T17:58:59.253Z,6.56
2023-02-01T18:01:29.426Z,6.63
2023-02-01T18:03:59.691Z,6.69
2023-02-01T18:06:31.254Z,6.70
2023-02-01T18:09:01.440Z,6.77
2023-02-01T18:11:34.192Z,6.84
2023-02-01T18:14:04.149Z,6.85
2023-02-01T18:16:38.032Z,6.87
2023-02-01T18:19:07.985Z,6.88
2023-02-01T18:21:42.764Z,6.90
2023-02-01T18:24:15.665Z,6.88
2023-02-01T18:26:50.188Z,6.92
2023-02-01T18:29:23.364Z,6.90
2023-02-01T18:31:55.126Z,6.97
2023-02-01T18:34:29.101Z,7.07
2023-02-01T18:36:59.261Z,7.11
2023-02-01T18:39:31.523Z,7.06
2023-02-01T18:42:04.956Z,6.95
2023-02-01T18:44:34.951Z,6.98
2023-02-01T18:47:04.924Z,7.00
2023-02-01T18:49:36.803Z,7.02
2023-02-01T18:52:08.309Z,6.98
2023-02-01T18:54:44.356Z,6.96
2023-02-01T18:57:24.004Z,7.03
2023-02-01T18:59:54.183Z,7.07
2023-02-01T19:02:24.212Z,7.06
2023-02-01T19:04:54.213Z,7.05
2023-02-01T19:07:24.147Z,7.07
2023-02-01T19:09:54.600Z,7.06
2023-02-01T19:12:27.236Z,7.10
2023-02-01T19:14:57.199Z,7.11
2023-02-01T19:17:27.430Z,7.11
2023-02-01T19:19:58.729Z,7.13
2023-02-01T19:22:29.230Z,7.16
2023-02-01T19:24:59.349Z,7.23
2023-02-01T19:27:32.088Z,7.26
2023-02-01T19:30:02.079Z,7.25
2023-02-01T19:32:32.478Z,7.20
2023-02-01T19:35:02.645Z,7.21
2023-02-01T19:37:32.680Z,7.16
2023-02-01T19:40:02.656Z,7.18
2023-02-01T19:42:38.164Z,7.23
2023-02-01T19:45:09.863Z,7.24
2023-02-01T19:47:40.162Z,7.20
2023-02-01T19:50:13.554Z,7.22
2023-02-01T19:52:43.539Z,7.29
2023-02-01T19:55:13.487Z,7.32
2023-02-01T19:57:46.575Z,7.34
2023-02-01T20:00:16.466Z,7.33
2023-02-01T20:02:46.514Z,7.33
2023-02-01T20:05:18.255Z,7.34
2023-02-01T20:07:48.289Z,7.23
2023-02-01T20:10:20.139Z,7.16
2023-02-01T20:12:53.555Z,7.14
2023-02-01T20:15:27.095Z,7.12
2023-02-01T20:17:57.355Z,7.13
2023-02-01T20:20:28.692Z,7.13
2023-02-01T20:22:59.179Z,7.10
2023-02-01T20:25:29.140Z,7.09
2023-02-01T20:28:02.954Z,7.14
2023-02-01T20:30:32.976Z,7.15
2023-02-01T20:33:02.986Z,7.10
2023-02-01T20:35:33.152Z,7.12
2023-02-01T20:38:03.176Z,7.14
2023-02-01T20:40:33.743Z,7.16
2023-02-01T20:43:06.400Z,7.21
2023-02-01T20:45:36.445Z,7.28
2023-02-01T20:48:06.516Z,7.25
2023-02-01T20:50:37.240Z,7.14
2023-02-01T20:53:09.988Z,7.11
2023-02-01T20:55:42.714Z,7.11
2023-02-01T20:58:15.330Z,7.12
2023-02-01T21:00:45.330Z,7.13
2023-02-01T21:03:15.616Z,7.10
2023-02-01T21:05:50.642Z,7.18
2023-02-01T21:08:21.472Z,7.22
2023-02-01T21:10:59.156Z,7.20
2023-02-01T21:13:34.903Z,7.24
2023-02-01T21:16:06.002Z,7.26
2023-02-01T21:18:36.168Z,7.30
2023-02-01T21:21:07.743Z,7.32
2023-02-01T21:23:45.004Z,7.32
2023-02-01T21:26:15.460Z,7.28
2023-02-01T21:28:48.455Z,7.27
2023-02-01T21:31:18.642Z,7.21
2023-02-01T21:33:49.460Z,7.19
2023-02-01T21:36:21.607Z,7.08
2023-02-01T21:38:52.793Z,7.04
2023-02-01T21:41:37.540Z,6.96
2023-02-01T21:44:12.800Z,6.93
2023-02-01T21:46:44.651Z,6.92
2023-02-01T21:49:16.032Z,6.94
2023-02-01T21:51:47.713Z,6.95
2023-02-01T21:54:19.049Z,6.94
2023-02-01T21:56:49.233Z,6.83
2023-02-01T21:59:27.303Z,6.74
2023-02-01T22:02:00.012Z,6.73
2023-02-01T22:04:33.751Z,6.74
2023-02-01T22:07:07.594Z,6.77
2023-02-01T22:09:42.486Z,6.81
2023-02-01T22:12:18.999Z,6.83
2023-02-01T22:14:54.818Z,6.90
2023-02-01T22:17:28.147Z,6.96
2023-02-01T22:20:03.206Z,6.98
2023-02-01T22:22:35.321Z,7.02
2023-02-01T22:25:07.744Z,7.01
2023-02-01T22:28:30.957Z,6.98
2023-02-01T22:30:46.332Z,6.98
2023-02-01T22:33:16.363Z,6.99
2023-02-01T22:35:46.319Z,6.99
2023-02-01T22:38:16.297Z,6.97
2023-02-01T22:40:47.981Z,7.00
2023-02-01T22:43:17.876Z,7.03
2023-02-01T22:45:50.609Z,7.13
2023-02-01T22:48:21.192Z,7.13
2023-02-01T22:50:53.276Z,7.10
2023-02-01T22:53:23.208Z,7.06
2023-02-01T22:55:53.389Z,7.06
2023-02-01T22:58:24.098Z,7.08
2023-02-01T23:00:56.714Z,7.07
2023-02-01T23:03:26.822Z,7.06
2023-02-01T23:06:01.178Z,7.08
2023-02-01T23:08:31.352Z,7.05
2023-02-01T23:11:02.474Z,6.98
2023-02-01T23:13:33.089Z,7.01
2023-02-01T23:16:08.033Z,6.97
2023-02-01T23:18:38.508Z,6.96
2023-02-01T23:21:10.558Z,6.94
2023-02-01T23:23:40.864Z,6.92
2023-02-01T23:26:10.795Z,6.92
2023-02-01T23:28:40.735Z,6.94
2023-02-01T23:31:15.840Z,6.98
2023-02-01T23:33:49.092Z,6.92
2023-02-01T23:36:20.551Z,6.98
2023-02-01T23:38:51.419Z,7.03
2023-02-01T23:41:22.950Z,6.96
2023-02-01T23:44:02.325Z,6.89
2023-02-01T23:46:38.144Z,6.87
2023-02-01T23:49:09.893Z,6.80
2023-02-01T23:51:40.257Z,6.83
2023-02-01T23:54:11.493Z,6.68
2023-02-01T23:56:43.466Z,6.72
2023-02-01T23:59:17.384Z,6.85
